createdAt,value
2022-11-25T00:02:53.612Z,13.15
2022-11-25T00:08:15.154Z,10.55
2022-11-25T00:13:37.555Z,9.65
2022-11-25T00:19:00.800Z,13.13
2022-11-25T00:24:22.683Z,14.43
2022-11-25T00:29:44.289Z,14.77
2022-11-25T00:35:06.770Z,14.40
2022-11-25T00:40:28.281Z,12.48
2022-11-25T00:45:50.412Z,11.32
2022-11-25T00:51:12.459Z,13.25
2022-11-25T00:56:34.095Z,11.05
2022-11-25T01:01:56.158Z,11.48
2022-11-25T01:07:18.736Z,14.35
2022-11-25T01:12:40.336Z,13.50
2022-11-25T01:18:01.746Z,10.15
2022-11-25T01:23:23.191Z,11.00
2022-11-25T01:28:48.687Z,11.00
2022-11-25T01:34:18.969Z,8.90
2022-11-25T01:39:40.680Z,13.15
2022-11-25T01:45:27.885Z,13.55
2022-11-25T01:50:51.547Z,17.35
2022-11-25T01:56:12.946Z,14.07
2022-11-25T02:01:34.472Z,12.07
2022-11-25T02:07:04.076Z,13.00
2022-11-25T02:12:27.187Z,15.57
2022-11-25T02:18:13.124Z,18.67
2022-11-25T02:23:52.341Z,13.70
2022-11-25T02:29:15.599Z,10.75
2022-11-25T02:34:48.118Z,8.88
2022-11-25T02:40:10.181Z,14.60
2022-11-25T02:46:01.473Z,12.25
2022-11-25T02:51:26.681Z,15.90
2022-11-25T02:56:47.998Z,16.23
2022-11-25T03:02:11.031Z,18.15
2022-11-25T03:07:33.058Z,17.95
2022-11-25T03:12:55.295Z,15.35
2022-11-25T03:18:17.434Z,14.90
2022-11-25T03:23:39.050Z,16.20
2022-11-25T03:29:00.592Z,15.15
2022-11-25T03:34:22.284Z,15.48
2022-11-25T03:39:44.487Z,15.07
2022-11-25T03:45:07.081Z,16.58
2022-11-25T03:50:30.161Z,21.65
2022-11-25T03:55:52.708Z,15.80
2022-11-25T04:01:16.669Z,17.23
2022-11-25T04:06:40.185Z,15.80
2022-11-25T04:12:20.645Z,15.95
2022-11-25T04:17:49.666Z,15.57
2022-11-25T04:23:12.805Z,11.93
2022-11-25T04:28:41.340Z,13.23
2022-11-25T04:34:02.849Z,9.77
2022-11-25T04:39:24.696Z,11.82
2022-11-25T04:45:14.161Z,13.27
2022-11-25T04:50:31.848Z,15.55
2022-11-25T04:56:04.217Z,13.98
2022-11-25T05:01:33.527Z,18.03
2022-11-25T05:07:05.330Z,11.85
2022-11-25T05:12:29.715Z,14.95
2022-11-25T05:17:52.444Z,12.85
2022-11-25T05:23:26.276Z,15.30
2022-11-25T05:28:48.370Z,14.40
2022-11-25T05:34:10.084Z,12.13
2022-11-25T05:39:32.561Z,16.55
2022-11-25T05:45:26.475Z,16.13
2022-11-25T05:50:48.452Z,13.18
2022-11-25T05:56:16.713Z,12.30
2022-11-25T06:01:58.381Z,11.87
2022-11-25T06:07:21.638Z,13.07
2022-11-25T06:12:44.650Z,12.75
2022-11-25T06:18:06.037Z,21.10
2022-11-25T06:23:29.906Z,11.80
2022-11-25T06:28:56.397Z,11.10
2022-11-25T06:34:20.630Z,11.40
2022-11-25T06:39:42.402Z,10.48
2022-11-25T06:45:05.439Z,11.57
2022-11-25T06:50:27.098Z,14.25
2022-11-25T06:55:48.367Z,13.10
2022-11-25T07:01:16.583Z,8.38
2022-11-25T07:06:37.961Z,12.20
2022-11-25T07:12:00.201Z,13.82
2022-11-25T07:17:21.396Z,9.27
2022-11-25T07:22:43.074Z,10.40
2022-11-25T07:28:05.014Z,9.00
2022-11-25T07:33:26.675Z,12.68
2022-11-25T07:38:49.238Z,11.50
2022-11-25T07:44:14.351Z,13.70
2022-11-25T07:49:45.687Z,10.35
2022-11-25T07:55:07.567Z,8.43
2022-11-25T08:00:29.035Z,10.23
2022-11-25T08:05:51.574Z,11.43
2022-11-25T08:11:15.864Z,7.53
2022-11-25T08:16:38.715Z,9.07
2022-11-25T08:22:00.208Z,10.73
2022-11-25T08:27:21.688Z,10.95
2022-11-25T08:32:43.637Z,7.53
2022-11-25T08:38:11.584Z,12.52
2022-11-25T08:43:32.838Z,8.20
2022-11-25T08:48:55.651Z,10.98
2022-11-25T08:54:17.333Z,12.45
2022-11-25T08:59:39.506Z,10.07
2022-11-25T09:05:02.356Z,14.27
2022-11-25T09:10:26.047Z,15.60
2022-11-25T09:15:47.602Z,11.85
2022-11-25T09:21:15.717Z,10.85
2022-11-25T09:26:39.894Z,13.90
2022-11-25T09:32:02.923Z,10.35
2022-11-25T09:37:27.605Z,12.55
2022-11-25T09:43:25.211Z,13.15
2022-11-25T09:49:08.713Z,16.20
2022-11-25T09:54:54.527Z,15.55
2022-11-25T10:00:19.285Z,12.55
2022-11-25T10:06:07.774Z,12.75
2022-11-25T10:11:56.164Z,11.32
2022-11-25T10:17:53.645Z,15.43
2022-11-25T10:23:28.083Z,8.88
2022-11-25T10:29:13.584Z,15.63
2022-11-25T10:34:45.747Z,10.02
2022-11-25T10:40:16.599Z,8.88
2022-11-25T10:45:47.969Z,13.80
2022-11-25T10:51:40.787Z,12.13
2022-11-25T10:57:04.813Z,10.20
2022-11-25T11:02:40.514Z,11.68
2022-11-25T11:08:14.032Z,12.68
2022-11-25T11:13:35.718Z,11.77
2022-11-25T11:19:00.534Z,11.07
2022-11-25T11:24:42.094Z,14.05
2022-11-25T11:30:20.547Z,11.63
2022-11-25T11:35:58.558Z,8.93
2022-11-25T11:41:31.587Z,9.00
2022-11-25T11:47:23.806Z,13.75
2022-11-25T11:52:59.441Z,7.25
2022-11-25T11:59:02.879Z,11.25
2022-11-25T12:04:54.479Z,9.23
2022-11-25T12:21:38.699Z,8.63
2022-11-25T12:27:17.051Z,9.38
2022-11-25T12:32:57.576Z,8.93
2022-11-25T12:38:36.964Z,9.13
2022-11-25T12:44:05.738Z,13.20
2022-11-25T12:49:33.033Z,11.68
2022-11-25T12:55:15.003Z,12.50
2022-11-25T13:01:13.697Z,10.82
2022-11-25T13:06:53.523Z,11.13
2022-11-25T13:12:36.874Z,11.88
2022-11-25T13:18:03.463Z,9.30
2022-11-25T13:23:27.638Z,14.55
2022-11-25T13:28:51.781Z,15.32
2022-11-25T13:34:19.345Z,11.68
2022-11-25T13:39:41.996Z,15.95
2022-11-25T13:45:03.315Z,12.85
2022-11-25T13:50:41.998Z,14.77
2022-11-25T13:56:13.638Z,9.00
2022-11-25T14:01:36.567Z,11.98
2022-11-25T14:07:30.312Z,11.23
2022-11-25T14:13:36.458Z,12.25
2022-11-25T14:19:49.541Z,15.75
2022-11-25T14:25:11.844Z,13.07
2022-11-25T14:30:47.656Z,12.05
2022-11-25T14:36:18.081Z,11.80
2022-11-25T14:42:07.215Z,10.05
2022-11-25T14:47:39.098Z,13.38
2022-11-25T14:53:01.172Z,14.80
2022-11-25T14:58:22.673Z,24.92
2022-11-25T15:03:48.456Z,11.13
2022-11-25T15:09:27.140Z,13.43
2022-11-25T15:14:56.030Z,9.30
2022-11-25T15:20:19.618Z,12.32
2022-11-25T15:25:50.679Z,10.55
2022-11-25T15:31:19.449Z,13.30
2022-11-25T15:36:41.749Z,12.23
2022-11-25T15:42:16.378Z,8.15
2022-11-25T15:47:38.988Z,11.45
2022-11-25T15:53:01.511Z,8.75
2022-11-25T15:58:26.893Z,10.43
2022-11-25T16:03:51.496Z,10.48
2022-11-25T16:09:22.001Z,12.80
2022-11-25T16:14:44.436Z,10.25
2022-11-25T16:20:16.822Z,7.95
2022-11-25T16:25:41.901Z,8.75
2022-11-25T16:31:04.119Z,11.45
2022-11-25T16:36:25.458Z,6.75
2022-11-25T16:41:57.131Z,9.95
2022-11-25T16:47:20.638Z,10.52
2022-11-25T16:52:42.717Z,12.02
2022-11-25T16:58:21.718Z,10.00
2022-11-25T17:03:43.713Z,23.52
2022-11-25T17:09:05.399Z,13.93
2022-11-25T17:14:36.605Z,14.40
2022-11-25T17:19:59.515Z,16.00
2022-11-25T17:25:23.296Z,13.98
2022-11-25T17:30:51.153Z,14.90
2022-11-25T17:36:13.810Z,32.10
2022-11-25T17:41:40.062Z,27.23
2022-11-25T17:47:04.708Z,262.05
2022-11-25T17:52:28.014Z,121.97
2022-11-25T17:57:50.578Z,22.70
2022-11-25T18:03:17.529Z,55.80
2022-11-25T18:08:39.811Z,78.50
2022-11-25T18:14:01.544Z,136.00
2022-11-25T18:19:24.352Z,113.78
2022-11-25T18:24:47.651Z,125.97
2022-11-25T18:30:20.678Z,146.10
2022-11-25T18:35:45.010Z,162.27
2022-11-25T18:41:19.196Z,114.95
2022-11-25T18:46:41.181Z,97.40
2022-11-25T18:52:04.892Z,188.02
2022-11-25T18:57:26.591Z,23.00
2022-11-25T19:02:52.376Z,234.05
2022-11-25T19:08:15.312Z,187.73
2022-11-25T19:13:38.468Z,296.00
2022-11-25T19:19:01.339Z,342.15
2022-11-25T19:24:22.807Z,198.27
2022-11-25T19:29:46.532Z,164.50
2022-11-25T19:35:16.385Z,25.85
2022-11-25T19:40:40.561Z,234.18
2022-11-25T19:46:03.731Z,78.30
2022-11-25T19:51:30.123Z,276.33
2022-11-25T19:56:53.076Z,164.75
2022-11-25T20:02:23.408Z,159.05
2022-11-25T20:13:07.275Z,263.67
2022-11-25T20:18:28.528Z,199.90
2022-11-25T20:23:51.173Z,108.90
2022-11-25T20:29:18.717Z,95.97
2022-11-25T20:34:42.287Z,8.07
2022-11-25T20:40:06.572Z,4.93
2022-11-25T20:45:27.985Z,7.00
2022-11-25T20:50:49.854Z,8.57
2022-11-25T20:56:14.922Z,10.98
2022-11-25T21:01:37.772Z,10.32
2022-11-25T21:07:00.550Z,10.27
2022-11-25T21:12:21.954Z,16.08
2022-11-25T21:17:44.143Z,152.43
2022-11-25T21:23:06.659Z,144.10
2022-11-25T21:28:28.494Z,14.95
2022-11-25T21:33:51.433Z,20.15
2022-11-25T21:39:18.808Z,51.45
2022-11-25T21:44:42.339Z,128.75
2022-11-25T21:50:13.667Z,20.42
2022-11-25T21:55:35.454Z,15.45
2022-11-25T22:01:00.393Z,33.85
2022-11-25T22:06:27.604Z,21.27
2022-11-25T22:11:50.615Z,30.58
2022-11-25T22:17:17.095Z,27.85
2022-11-25T22:22:38.723Z,29.45
2022-11-25T22:28:00.328Z,24.13
2022-11-25T22:33:29.066Z,33.72
2022-11-25T22:38:50.598Z,45.85
2022-11-25T22:44:40.908Z,52.95
2022-11-25T22:50:05.838Z,69.32
2022-11-25T22:55:32.692Z,66.20
2022-11-25T23:00:56.783Z,39.03
2022-11-25T23:06:18.420Z,36.20
2022-11-25T23:11:41.780Z,105.55
2022-11-25T23:17:03.375Z,17.83
2022-11-25T23:22:24.787Z,30.63
2022-11-25T23:27:47.162Z,53.63
2022-11-25T23:33:38.825Z,47.10
2022-11-25T23:39:03.992Z,13.52
2022-11-25T23:44:26.730Z,9.45
2022-11-25T23:49:51.056Z,9.13
2022-11-25T23:55:22.636Z,10.25
